sensor_id;sensor_type;location;lat;lon;timestamp;P1;durP1;ratioP1;P2;durP2;ratioP2
70825;SDS011;58446;41.490;22.098;2024-03-02T00:00:08;19.70;;;10.68;;
70825;SDS011;58446;41.490;22.098;2024-03-02T00:02:42;16.67;;;10.18;;
70825;SDS011;58446;41.490;22.098;2024-03-02T00:05:11;16.70;;;9.93;;
70825;SDS011;58446;41.490;22.098;2024-03-02T00:07:41;19.30;;;11.30;;
70825;SDS011;58446;41.490;22.098;2024-03-02T00:10:08;20.23;;;11.63;;
70825;SDS011;58446;41.490;22.098;2024-03-02T00:12:38;17.65;;;10.25;;
70825;SDS011;58446;41.490;22.098;2024-03-02T00:15:05;17.02;;;11.77;;
70825;SDS011;58446;41.490;22.098;2024-03-02T00:17:44;15.23;;;10.03;;
70825;SDS011;58446;41.490;22.098;2024-03-02T00:20:21;17.58;;;10.13;;
70825;SDS011;58446;41.490;22.098;2024-03-02T00:22:48;18.65;;;10.13;;
70825;SDS011;58446;41.490;22.098;2024-03-02T00:25:14;14.73;;;9.10;;
70825;SDS011;58446;41.490;22.098;2024-03-02T00:27:39;16.50;;;10.33;;
70825;SDS011;58446;41.490;22.098;2024-03-02T00:30:08;16.70;;;10.83;;
70825;SDS011;58446;41.490;22.098;2024-03-02T00:33:01;17.08;;;10.65;;
70825;SDS011;58446;41.490;22.098;2024-03-02T00:35:27;17.33;;;11.20;;
70825;SDS011;58446;41.490;22.098;2024-03-02T00:37:54;18.27;;;10.85;;
70825;SDS011;58446;41.490;22.098;2024-03-02T00:40:20;16.13;;;10.23;;
70825;SDS011;58446;41.490;22.098;2024-03-02T00:42:45;16.65;;;10.93;;
70825;SDS011;58446;41.490;22.098;2024-03-02T00:45:11;19.00;;;11.60;;
70825;SDS011;58446;41.490;22.098;2024-03-02T00:47:40;17.05;;;11.05;;
70825;SDS011;58446;41.490;22.098;2024-03-02T00:50:06;18.00;;;11.43;;
70825;SDS011;58446;41.490;22.098;2024-03-02T00:52:33;17.67;;;10.88;;
70825;SDS011;58446;41.490;22.098;2024-03-02T00:55:01;16.60;;;10.55;;
70825;SDS011;58446;41.490;22.098;2024-03-02T00:57:27;16.07;;;10.80;;
70825;SDS011;58446;41.490;22.098;2024-03-02T00:59:59;14.48;;;10.25;;
70825;SDS011;58446;41.490;22.098;2024-03-02T01:02:25;17.63;;;10.88;;
70825;SDS011;58446;41.490;22.098;2024-03-02T01:04:52;16.85;;;10.75;;
70825;SDS011;58446;41.490;22.098;2024-03-02T01:07:17;16.97;;;10.40;;
70825;SDS011;58446;41.490;22.098;2024-03-02T01:09:43;17.52;;;11.10;;
70825;SDS011;58446;41.490;22.098;2024-03-02T01:12:10;16.63;;;10.65;;
70825;SDS011;58446;41.490;22.098;2024-03-02T01:14:35;16.27;;;9.73;;
70825;SDS011;58446;41.490;22.098;2024-03-02T01:17:01;16.17;;;10.75;;
70825;SDS011;58446;41.490;22.098;2024-03-02T01:19:29;19.23;;;12.90;;
70825;SDS011;58446;41.490;22.098;2024-03-02T01:21:55;17.25;;;11.35;;
70825;SDS011;58446;41.490;22.098;2024-03-02T01:24:21;16.73;;;11.50;;
70825;SDS011;58446;41.490;22.098;2024-03-02T01:26:46;18.83;;;11.73;;
70825;SDS011;58446;41.490;22.098;2024-03-02T01:29:12;17.92;;;12.10;;
70825;SDS011;58446;41.490;22.098;2024-03-02T01:31:38;22.57;;;13.67;;
70825;SDS011;58446;41.490;22.098;2024-03-02T01:34:07;20.00;;;13.13;;
70825;SDS011;58446;41.490;22.098;2024-03-02T01:36:33;24.95;;;16.13;;
70825;SDS011;58446;41.490;22.098;2024-03-02T01:38:58;27.43;;;17.70;;
70825;SDS011;58446;41.490;22.098;2024-03-02T01:41:24;26.33;;;17.27;;
70825;SDS011;58446;41.490;22.098;2024-03-02T01:43:50;25.45;;;16.75;;
70825;SDS011;58446;41.490;22.098;2024-03-02T01:46:16;22.23;;;16.27;;
70825;SDS011;58446;41.490;22.098;2024-03-02T01:48:42;20.63;;;13.50;;
70825;SDS011;58446;41.490;22.098;2024-03-02T01:51:07;19.53;;;12.97;;
70825;SDS011;58446;41.490;22.098;2024-03-02T01:53:36;21.73;;;13.50;;
70825;SDS011;58446;41.490;22.098;2024-03-02T01:56:02;21.13;;;12.70;;
70825;SDS011;58446;41.490;22.098;2024-03-02T01:58:28;18.97;;;12.43;;
70825;SDS011;58446;41.490;22.098;2024-03-02T02:00:54;21.10;;;13.77;;
70825;SDS011;58446;41.490;22.098;2024-03-02T02:03:20;20.93;;;13.40;;
70825;SDS011;58446;41.490;22.098;2024-03-02T02:05:46;17.48;;;12.38;;
70825;SDS011;58446;41.490;22.098;2024-03-02T02:08:13;22.65;;;13.80;;
70825;SDS011;58446;41.490;22.098;2024-03-02T02:10:38;22.17;;;13.83;;
70825;SDS011;58446;41.490;22.098;2024-03-02T02:13:04;19.60;;;13.57;;
70825;SDS011;58446;41.490;22.098;2024-03-02T02:15:30;19.43;;;12.23;;
70825;SDS011;58446;41.490;22.098;2024-03-02T02:17:57;20.17;;;12.80;;
70825;SDS011;58446;41.490;22.098;2024-03-02T02:20:23;21.98;;;13.00;;
70825;SDS011;58446;41.490;22.098;2024-03-02T02:22:56;21.30;;;13.35;;
70825;SDS011;58446;41.490;22.098;2024-03-02T02:25:22;20.27;;;12.23;;
70825;SDS011;58446;41.490;22.098;2024-03-02T02:27:48;20.13;;;13.05;;
70825;SDS011;58446;41.490;22.098;2024-03-02T02:30:17;19.95;;;13.18;;
70825;SDS011;58446;41.490;22.098;2024-03-02T02:33:01;18.93;;;12.40;;
70825;SDS011;58446;41.490;22.098;2024-03-02T02:35:26;18.80;;;13.00;;
70825;SDS011;58446;41.490;22.098;2024-03-02T02:37:53;19.70;;;11.77;;
70825;SDS011;58446;41.490;22.098;2024-03-02T02:40:19;17.33;;;11.87;;
70825;SDS011;58446;41.490;22.098;2024-03-02T02:42:45;19.45;;;11.57;;
70825;SDS011;58446;41.490;22.098;2024-03-02T02:45:12;17.45;;;11.15;;
70825;SDS011;58446;41.490;22.098;2024-03-02T02:47:39;17.58;;;12.23;;
70825;SDS011;58446;41.490;22.098;2024-03-02T02:50:08;16.30;;;10.57;;
70825;SDS011;58446;41.490;22.098;2024-03-02T02:52:36;17.05;;;11.20;;
70825;SDS011;58446;41.490;22.098;2024-03-02T02:55:04;16.40;;;11.85;;
70825;SDS011;58446;41.490;22.098;2024-03-02T02:57:32;16.40;;;10.63;;
70825;SDS011;58446;41.490;22.098;2024-03-02T03:00:02;17.38;;;10.95;;
70825;SDS011;58446;41.490;22.098;2024-03-02T03:02:30;16.90;;;11.43;;
70825;SDS011;58446;41.490;22.098;2024-03-02T03:04:56;16.42;;;11.13;;
70825;SDS011;58446;41.490;22.098;2024-03-02T03:07:22;18.15;;;11.70;;
70825;SDS011;58446;41.490;22.098;2024-03-02T03:09:48;17.40;;;11.43;;
70825;SDS011;58446;41.490;22.098;2024-03-02T03:12:14;15.73;;;10.67;;
70825;SDS011;58446;41.490;22.098;2024-03-02T03:14:43;16.15;;;10.98;;
70825;SDS011;58446;41.490;22.098;2024-03-02T03:17:08;17.27;;;10.93;;
70825;SDS011;58446;41.490;22.098;2024-03-02T03:19:34;17.37;;;11.17;;
70825;SDS011;58446;41.490;22.098;2024-03-02T03:22:00;18.80;;;11.27;;
70825;SDS011;58446;41.490;22.098;2024-03-02T03:24:26;21.00;;;11.53;;
70825;SDS011;58446;41.490;22.098;2024-03-02T03:26:52;19.27;;;11.25;;
70825;SDS011;58446;41.490;22.098;2024-03-02T03:29:17;18.60;;;11.57;;
70825;SDS011;58446;41.490;22.098;2024-03-02T03:31:43;21.45;;;13.07;;
70825;SDS011;58446;41.490;22.098;2024-03-02T03:34:09;19.63;;;11.17;;
70825;SDS011;58446;41.490;22.098;2024-03-02T03:36:34;20.27;;;12.10;;
70825;SDS011;58446;41.490;22.098;2024-03-02T03:39:00;23.87;;;11.57;;
70825;SDS011;58446;41.490;22.098;2024-03-02T03:41:28;19.50;;;12.75;;
70825;SDS011;58446;41.490;22.098;2024-03-02T03:43:54;24.00;;;12.10;;
70825;SDS011;58446;41.490;22.098;2024-03-02T03:46:20;19.30;;;12.10;;
70825;SDS011;58446;41.490;22.098;2024-03-02T03:48:46;18.27;;;11.77;;
70825;SDS011;58446;41.490;22.098;2024-03-02T03:51:12;18.67;;;11.87;;
70825;SDS011;58446;41.490;22.098;2024-03-02T03:53:37;17.88;;;11.82;;
70825;SDS011;58446;41.490;22.098;2024-03-02T03:56:03;19.37;;;12.13;;
70825;SDS011;58446;41.490;22.098;2024-03-02T03:58:29;17.85;;;11.07;;
70825;SDS011;58446;41.490;22.098;2024-03-02T04:00:55;18.30;;;10.60;;
70825;SDS011;58446;41.490;22.098;2024-03-02T04:03:21;17.27;;;11.10;;
70825;SDS011;58446;41.490;22.098;2024-03-02T04:05:47;16.20;;;10.13;;
70825;SDS011;58446;41.490;22.098;2024-03-02T04:08:13;17.40;;;11.10;;
70825;SDS011;58446;41.490;22.098;2024-03-02T04:10:38;17.73;;;10.38;;
70825;SDS011;58446;41.490;22.098;2024-03-02T04:13:05;17.03;;;10.87;;
70825;SDS011;58446;41.490;22.098;2024-03-02T04:15:31;20.80;;;12.45;;
70825;SDS011;58446;41.490;22.098;2024-03-02T04:17:56;21.50;;;12.90;;
70825;SDS011;58446;41.490;22.098;2024-03-02T04:20:22;22.20;;;13.18;;
70825;SDS011;58446;41.490;22.098;2024-03-02T04:22:48;24.37;;;14.17;;
70825;SDS011;58446;41.490;22.098;2024-03-02T04:25:14;26.90;;;15.18;;
70825;SDS011;58446;41.490;22.098;2024-03-02T04:27:39;24.00;;;13.57;;
70825;SDS011;58446;41.490;22.098;2024-03-02T04:30:06;26.95;;;14.35;;
70825;SDS011;58446;41.490;22.098;2024-03-02T04:32:32;25.50;;;15.52;;
70825;SDS011;58446;41.490;22.098;2024-03-02T04:34:58;23.47;;;14.00;;
70825;SDS011;58446;41.490;22.098;2024-03-02T04:37:23;27.60;;;14.93;;
70825;SDS011;58446;41.490;22.098;2024-03-02T04:39:49;25.53;;;15.00;;
70825;SDS011;58446;41.490;22.098;2024-03-02T04:42:15;28.00;;;14.73;;
70825;SDS011;58446;41.490;22.098;2024-03-02T04:44:41;26.53;;;16.10;;
70825;SDS011;58446;41.490;22.098;2024-03-02T04:47:06;25.90;;;15.45;;
70825;SDS011;58446;41.490;22.098;2024-03-02T04:49:32;23.40;;;14.50;;
70825;SDS011;58446;41.490;22.098;2024-03-02T04:51:58;25.08;;;14.18;;
70825;SDS011;58446;41.490;22.098;2024-03-02T04:54:23;25.27;;;15.17;;
70825;SDS011;58446;41.490;22.098;2024-03-02T04:56:49;26.55;;;13.85;;
70825;SDS011;58446;41.490;22.098;2024-03-02T04:59:15;23.92;;;14.15;;
70825;SDS011;58446;41.490;22.098;2024-03-02T05:01:42;23.30;;;13.43;;
70825;SDS011;58446;41.490;22.098;2024-03-02T05:04:08;23.38;;;13.60;;
70825;SDS011;58446;41.490;22.098;2024-03-02T05:06:37;22.70;;;14.27;;
70825;SDS011;58446;41.490;22.098;2024-03-02T05:09:04;23.40;;;13.38;;
70825;SDS011;58446;41.490;22.098;2024-03-02T05:11:30;23.27;;;13.83;;
70825;SDS011;58446;41.490;22.098;2024-03-02T05:14:04;22.25;;;13.43;;
70825;SDS011;58446;41.490;22.098;2024-03-02T05:16:35;20.30;;;12.30;;
70825;SDS011;58446;41.490;22.098;2024-03-02T05:19:01;17.17;;;11.77;;
70825;SDS011;58446;41.490;22.098;2024-03-02T05:21:27;17.83;;;10.87;;
70825;SDS011;58446;41.490;22.098;2024-03-02T05:23:53;19.77;;;12.77;;
70825;SDS011;58446;41.490;22.098;2024-03-02T05:26:18;17.60;;;12.00;;
70825;SDS011;58446;41.490;22.098;2024-03-02T05:28:44;19.70;;;12.23;;
70825;SDS011;58446;41.490;22.098;2024-03-02T05:31:10;16.57;;;10.30;;
70825;SDS011;58446;41.490;22.098;2024-03-02T05:33:39;18.40;;;11.63;;
70825;SDS011;58446;41.490;22.098;2024-03-02T05:36:05;20.90;;;13.02;;
70825;SDS011;58446;41.490;22.098;2024-03-02T05:38:32;19.23;;;12.60;;
70825;SDS011;58446;41.490;22.098;2024-03-02T05:40:59;18.45;;;12.20;;
70825;SDS011;58446;41.490;22.098;2024-03-02T05:43:25;18.73;;;13.60;;
70825;SDS011;58446;41.490;22.098;2024-03-02T05:45:51;18.07;;;13.60;;
70825;SDS011;58446;41.490;22.098;2024-03-02T05:48:16;17.63;;;12.95;;
70825;SDS011;58446;41.490;22.098;2024-03-02T05:50:42;18.07;;;11.80;;
70825;SDS011;58446;41.490;22.098;2024-03-02T05:53:08;17.30;;;11.70;;
70825;SDS011;58446;41.490;22.098;2024-03-02T05:55:34;18.43;;;12.17;;
70825;SDS011;58446;41.490;22.098;2024-03-02T05:58:00;17.20;;;12.07;;
70825;SDS011;58446;41.490;22.098;2024-03-02T06:00:31;19.85;;;12.68;;
70825;SDS011;58446;41.490;22.098;2024-03-02T06:02:57;16.37;;;12.40;;
70825;SDS011;58446;41.490;22.098;2024-03-02T06:05:23;17.98;;;11.57;;
70825;SDS011;58446;41.490;22.098;2024-03-02T06:07:49;15.35;;;10.93;;
70825;SDS011;58446;41.490;22.098;2024-03-02T06:10:16;18.45;;;12.20;;
70825;SDS011;58446;41.490;22.098;2024-03-02T06:12:42;15.87;;;11.30;;
70825;SDS011;58446;41.490;22.098;2024-03-02T06:15:08;16.77;;;10.95;;
70825;SDS011;58446;41.490;22.098;2024-03-02T06:17:35;16.73;;;12.07;;
70825;SDS011;58446;41.490;22.098;2024-03-02T06:20:02;16.15;;;11.38;;
70825;SDS011;58446;41.490;22.098;2024-03-02T06:22:28;16.75;;;11.15;;
70825;SDS011;58446;41.490;22.098;2024-03-02T06:24:54;16.33;;;10.80;;
70825;SDS011;58446;41.490;22.098;2024-03-02T06:27:20;17.50;;;11.45;;
70825;SDS011;58446;41.490;22.098;2024-03-02T06:29:45;23.10;;;14.53;;
70825;SDS011;58446;41.490;22.098;2024-03-02T06:32:11;23.38;;;14.10;;
70825;SDS011;58446;41.490;22.098;2024-03-02T06:34:37;20.27;;;11.77;;
70825;SDS011;58446;41.490;22.098;2024-03-02T06:37:03;17.23;;;11.65;;
70825;SDS011;58446;41.490;22.098;2024-03-02T06:39:28;19.73;;;13.07;;
70825;SDS011;58446;41.490;22.098;2024-03-02T06:41:59;20.97;;;13.30;;
70825;SDS011;58446;41.490;22.098;2024-03-02T06:44:27;15.77;;;11.68;;
70825;SDS011;58446;41.490;22.098;2024-03-02T06:46:53;18.35;;;11.82;;
70825;SDS011;58446;41.490;22.098;2024-03-02T06:49:19;17.47;;;12.83;;
70825;SDS011;58446;41.490;22.098;2024-03-02T06:51:44;18.50;;;11.85;;
70825;SDS011;58446;41.490;22.098;2024-03-02T06:54:10;15.33;;;11.03;;
70825;SDS011;58446;41.490;22.098;2024-03-02T06:56:36;19.17;;;11.20;;
70825;SDS011;58446;41.490;22.098;2024-03-02T06:59:03;17.70;;;10.85;;
70825;SDS011;58446;41.490;22.098;2024-03-02T07:01:29;15.90;;;11.50;;
70825;SDS011;58446;41.490;22.098;2024-03-02T07:03:55;16.27;;;10.30;;
70825;SDS011;58446;41.490;22.098;2024-03-02T07:06:21;15.43;;;10.57;;
70825;SDS011;58446;41.490;22.098;2024-03-02T07:08:46;16.70;;;11.55;;
70825;SDS011;58446;41.490;22.098;2024-03-02T07:11:12;16.03;;;11.00;;
70825;SDS011;58446;41.490;22.098;2024-03-02T07:13:38;17.50;;;10.70;;
70825;SDS011;58446;41.490;22.098;2024-03-02T07:16:03;16.43;;;10.67;;
70825;SDS011;58446;41.490;22.098;2024-03-02T07:18:32;15.98;;;10.18;;
70825;SDS011;58446;41.490;22.098;2024-03-02T07:21:06;14.90;;;9.95;;
70825;SDS011;58446;41.490;22.098;2024-03-02T07:23:32;14.73;;;9.95;;
70825;SDS011;58446;41.490;22.098;2024-03-02T07:25:59;14.00;;;9.67;;
70825;SDS011;58446;41.490;22.098;2024-03-02T07:28:26;14.98;;;9.05;;
70825;SDS011;58446;41.490;22.098;2024-03-02T07:30:59;15.23;;;10.18;;
70825;SDS011;58446;41.490;22.098;2024-03-02T07:33:26;14.93;;;9.93;;
70825;SDS011;58446;41.490;22.098;2024-03-02T07:35:52;15.23;;;9.27;;
70825;SDS011;58446;41.490;22.098;2024-03-02T07:38:19;14.07;;;9.07;;
70825;SDS011;58446;41.490;22.098;2024-03-02T07:40:45;14.38;;;8.68;;
70825;SDS011;58446;41.490;22.098;2024-03-02T07:43:10;16.93;;;9.40;;
70825;SDS011;58446;41.490;22.098;2024-03-02T07:45:36;14.73;;;9.37;;
70825;SDS011;58446;41.490;22.098;2024-03-02T07:48:02;14.03;;;10.10;;
70825;SDS011;58446;41.490;22.098;2024-03-02T07:50:31;15.67;;;9.23;;
70825;SDS011;58446;41.490;22.098;2024-03-02T07:52:59;15.55;;;9.65;;
70825;SDS011;58446;41.490;22.098;2024-03-02T07:55:24;14.43;;;9.40;;
70825;SDS011;58446;41.490;22.098;2024-03-02T07:57:50;12.73;;;8.70;;
70825;SDS011;58446;41.490;22.098;2024-03-02T08:00:16;14.33;;;10.10;;
70825;SDS011;58446;41.490;22.098;2024-03-02T08:02:41;13.75;;;9.82;;
70825;SDS011;58446;41.490;22.098;2024-03-02T08:05:07;14.13;;;9.47;;
70825;SDS011;58446;41.490;22.098;2024-03-02T08:07:33;12.73;;;8.57;;
70825;SDS011;58446;41.490;22.098;2024-03-02T08:09:59;11.77;;;8.27;;
70825;SDS011;58446;41.490;22.098;2024-03-02T08:12:25;13.63;;;8.17;;
70825;SDS011;58446;41.490;22.098;2024-03-02T08:14:51;11.97;;;7.17;;
70825;SDS011;58446;41.490;22.098;2024-03-02T08:17:16;11.13;;;7.23;;
70825;SDS011;58446;41.490;22.098;2024-03-02T08:19:42;11.48;;;7.10;;
70825;SDS011;58446;41.490;22.098;2024-03-02T08:22:09;10.88;;;6.78;;
70825;SDS011;58446;41.490;22.098;2024-03-02T08:24:35;10.82;;;6.82;;
70825;SDS011;58446;41.490;22.098;2024-03-02T08:27:01;10.00;;;6.47;;
70825;SDS011;58446;41.490;22.098;2024-03-02T08:29:27;10.27;;;6.43;;
70825;SDS011;58446;41.490;22.098;2024-03-02T08:31:53;10.93;;;6.60;;
70825;SDS011;58446;41.490;22.098;2024-03-02T08:34:19;11.00;;;6.50;;
70825;SDS011;58446;41.490;22.098;2024-03-02T08:36:45;11.83;;;7.47;;
70825;SDS011;58446;41.490;22.098;2024-03-02T08:39:12;9.57;;;5.82;;
70825;SDS011;58446;41.490;22.098;2024-03-02T08:41:47;9.75;;;5.68;;
70825;SDS011;58446;41.490;22.098;2024-03-02T08:44:13;10.50;;;6.63;;
70825;SDS011;58446;41.490;22.098;2024-03-02T08:46:39;10.50;;;6.50;;
70825;SDS011;58446;41.490;22.098;2024-03-02T08:49:05;10.10;;;6.88;;
70825;SDS011;58446;41.490;22.098;2024-03-02T08:51:31;8.82;;;5.70;;
70825;SDS011;58446;41.490;22.098;2024-03-02T08:53:57;8.98;;;5.53;;
70825;SDS011;58446;41.490;22.098;2024-03-02T08:56:24;7.82;;;5.55;;
70825;SDS011;58446;41.490;22.098;2024-03-02T08:58:50;8.50;;;4.83;;
70825;SDS011;58446;41.490;22.098;2024-03-02T09:01:17;8.65;;;5.03;;
70825;SDS011;58446;41.490;22.098;2024-03-02T09:03:44;7.60;;;5.03;;
70825;SDS011;58446;41.490;22.098;2024-03-02T09:06:11;8.43;;;5.45;;
70825;SDS011;58446;41.490;22.098;2024-03-02T09:08:37;7.93;;;4.88;;
70825;SDS011;58446;41.490;22.098;2024-03-02T09:11:04;8.47;;;4.27;;
70825;SDS011;58446;41.490;22.098;2024-03-02T09:13:31;7.95;;;4.80;;
70825;SDS011;58446;41.490;22.098;2024-03-02T09:15:57;8.57;;;4.80;;
70825;SDS011;58446;41.490;22.098;2024-03-02T09:18:23;7.50;;;4.37;;
70825;SDS011;58446;41.490;22.098;2024-03-02T09:20:48;7.43;;;5.30;;
70825;SDS011;58446;41.490;22.098;2024-03-02T09:23:14;9.60;;;5.40;;
70825;SDS011;58446;41.490;22.098;2024-03-02T09:25:40;9.45;;;5.88;;
70825;SDS011;58446;41.490;22.098;2024-03-02T09:28:05;6.73;;;3.97;;
70825;SDS011;58446;41.490;22.098;2024-03-02T09:30:32;9.15;;;4.10;;
70825;SDS011;58446;41.490;22.098;2024-03-02T09:32:58;8.27;;;5.10;;
70825;SDS011;58446;41.490;22.098;2024-03-02T09:35:24;7.37;;;3.90;;
70825;SDS011;58446;41.490;22.098;2024-03-02T09:37:50;7.25;;;4.30;;
70825;SDS011;58446;41.490;22.098;2024-03-02T09:40:16;6.88;;;4.38;;
70825;SDS011;58446;41.490;22.098;2024-03-02T09:42:42;7.03;;;4.18;;
70825;SDS011;58446;41.490;22.098;2024-03-02T09:45:10;6.93;;;4.00;;
70825;SDS011;58446;41.490;22.098;2024-03-02T09:47:36;11.93;;;6.70;;
70825;SDS011;58446;41.490;22.098;2024-03-02T09:50:02;11.10;;;6.50;;
70825;SDS011;58446;41.490;22.098;2024-03-02T09:52:29;12.13;;;7.20;;
70825;SDS011;58446;41.490;22.098;2024-03-02T09:54:56;7.72;;;4.40;;
70825;SDS011;58446;41.490;22.098;2024-03-02T09:57:21;8.70;;;5.30;;
70825;SDS011;58446;41.490;22.098;2024-03-02T09:59:47;12.43;;;7.63;;
70825;SDS011;58446;41.490;22.098;2024-03-02T10:02:13;10.88;;;5.32;;
70825;SDS011;58446;41.490;22.098;2024-03-02T10:04:40;9.50;;;5.77;;
70825;SDS011;58446;41.490;22.098;2024-03-02T10:07:18;5.93;;;3.50;;
70825;SDS011;58446;41.490;22.098;2024-03-02T10:09:46;9.10;;;5.35;;
70825;SDS011;58446;41.490;22.098;2024-03-02T10:12:14;12.18;;;5.88;;
70825;SDS011;58446;41.490;22.098;2024-03-02T10:14:42;9.57;;;5.20;;
70825;SDS011;58446;41.490;22.098;2024-03-02T10:17:09;15.57;;;8.07;;
70825;SDS011;58446;41.490;22.098;2024-03-02T10:19:36;12.38;;;6.63;;
70825;SDS011;58446;41.490;22.098;2024-03-02T10:22:06;8.05;;;4.38;;
70825;SDS011;58446;41.490;22.098;2024-03-02T10:27:09;13.30;;;6.50;;
70825;SDS011;58446;41.490;22.098;2024-03-02T10:29:40;16.58;;;6.63;;
70825;SDS011;58446;41.490;22.098;2024-03-02T10:32:08;15.35;;;6.88;;
70825;SDS011;58446;41.490;22.098;2024-03-02T10:34:36;9.23;;;4.07;;
70825;SDS011;58446;41.490;22.098;2024-03-02T10:37:02;7.70;;;3.83;;
70825;SDS011;58446;41.490;22.098;2024-03-02T10:39:28;8.73;;;3.57;;
70825;SDS011;58446;41.490;22.098;2024-03-02T10:41:56;9.15;;;5.30;;
70825;SDS011;58446;41.490;22.098;2024-03-02T10:44:23;12.13;;;4.45;;
70825;SDS011;58446;41.490;22.098;2024-03-02T10:46:51;8.20;;;3.63;;
70825;SDS011;58446;41.490;22.098;2024-03-02T10:49:18;7.68;;;3.58;;
70825;SDS011;58446;41.490;22.098;2024-03-02T10:51:47;6.20;;;2.97;;
70825;SDS011;58446;41.490;22.098;2024-03-02T10:54:12;7.47;;;3.22;;
70825;SDS011;58446;41.490;22.098;2024-03-02T10:56:39;9.83;;;3.63;;
70825;SDS011;58446;41.490;22.098;2024-03-02T11:01:47;9.88;;;4.65;;
70825;SDS011;58446;41.490;22.098;2024-03-02T11:04:14;10.25;;;5.13;;
70825;SDS011;58446;41.490;22.098;2024-03-02T11:06:43;9.40;;;3.45;;
70825;SDS011;58446;41.490;22.098;2024-03-02T11:09:18;8.52;;;3.08;;
70825;SDS011;58446;41.490;22.098;2024-03-02T11:12:03;7.60;;;2.13;;
70825;SDS011;58446;41.490;22.098;2024-03-02T11:14:40;5.85;;;2.28;;
70825;SDS011;58446;41.490;22.098;2024-03-02T11:17:09;6.25;;;4.07;;
70825;SDS011;58446;41.490;22.098;2024-03-02T11:19:37;5.50;;;2.53;;
70825;SDS011;58446;41.490;22.098;2024-03-02T11:22:04;5.97;;;2.50;;
70825;SDS011;58446;41.490;22.098;2024-03-02T11:24:31;7.67;;;3.27;;
70825;SDS011;58446;41.490;22.098;2024-03-02T11:27:04;8.52;;;3.08;;
70825;SDS011;58446;41.490;22.098;2024-03-02T11:32:06;8.93;;;2.92;;
70825;SDS011;58446;41.490;22.098;2024-03-02T11:34:39;6.75;;;2.78;;
70825;SDS011;58446;41.490;22.098;2024-03-02T11:37:10;8.70;;;2.90;;
70825;SDS011;58446;41.490;22.098;2024-03-02T11:39:36;7.85;;;2.92;;
70825;SDS011;58446;41.490;22.098;2024-03-02T11:42:05;6.03;;;2.58;;
70825;SDS011;58446;41.490;22.098;2024-03-02T11:44:37;9.52;;;2.67;;
70825;SDS011;58446;41.490;22.098;2024-03-02T11:47:07;6.17;;;2.40;;
70825;SDS011;58446;41.490;22.098;2024-03-02T11:49:49;8.07;;;2.83;;
70825;SDS011;58446;41.490;22.098;2024-03-02T11:52:17;7.47;;;3.05;;
70825;SDS011;58446;41.490;22.098;2024-03-02T11:54:45;9.10;;;3.90;;
70825;SDS011;58446;41.490;22.098;2024-03-02T11:57:15;9.05;;;3.75;;
70825;SDS011;58446;41.490;22.098;2024-03-02T11:59:43;7.97;;;2.47;;
70825;SDS011;58446;41.490;22.098;2024-03-02T12:02:21;6.63;;;3.50;;
70825;SDS011;58446;41.490;22.098;2024-03-02T12:04:48;9.05;;;4.10;;
70825;SDS011;58446;41.490;22.098;2024-03-02T12:07:21;7.97;;;3.42;;
70825;SDS011;58446;41.490;22.098;2024-03-02T12:09:49;10.52;;;5.43;;
70825;SDS011;58446;41.490;22.098;2024-03-02T12:12:25;8.00;;;2.73;;
70825;SDS011;58446;41.490;22.098;2024-03-02T12:14:52;9.10;;;3.00;;
70825;SDS011;58446;41.490;22.098;2024-03-02T12:17:20;8.68;;;2.53;;
70825;SDS011;58446;41.490;22.098;2024-03-02T12:19:46;6.13;;;2.95;;
70825;SDS011;58446;41.490;22.098;2024-03-02T12:22:12;8.17;;;3.17;;
70825;SDS011;58446;41.490;22.098;2024-03-02T12:24:37;7.07;;;3.10;;
70825;SDS011;58446;41.490;22.098;2024-03-02T12:27:04;9.48;;;2.67;;
70825;SDS011;58446;41.490;22.098;2024-03-02T12:29:33;7.70;;;2.70;;
70825;SDS011;58446;41.490;22.098;2024-03-02T12:31:59;7.15;;;2.45;;
70825;SDS011;58446;41.490;22.098;2024-03-02T12:34:27;9.13;;;2.70;;
70825;SDS011;58446;41.490;22.098;2024-03-02T12:36:53;6.75;;;3.00;;
70825;SDS011;58446;41.490;22.098;2024-03-02T12:39:19;7.63;;;2.73;;
70825;SDS011;58446;41.490;22.098;2024-03-02T12:41:49;6.78;;;2.60;;
70825;SDS011;58446;41.490;22.098;2024-03-02T12:44:19;7.70;;;2.70;;
70825;SDS011;58446;41.490;22.098;2024-03-02T12:46:45;7.33;;;2.77;;
70825;SDS011;58446;41.490;22.098;2024-03-02T12:49:12;7.65;;;2.78;;
70825;SDS011;58446;41.490;22.098;2024-03-02T12:51:39;6.82;;;2.53;;
70825;SDS011;58446;41.490;22.098;2024-03-02T12:54:08;6.72;;;3.08;;
70825;SDS011;58446;41.490;22.098;2024-03-02T12:56:35;7.05;;;2.78;;
70825;SDS011;58446;41.490;22.098;2024-03-02T12:59:05;7.37;;;2.80;;
70825;SDS011;58446;41.490;22.098;2024-03-02T13:01:31;8.20;;;3.17;;
70825;SDS011;58446;41.490;22.098;2024-03-02T13:03:57;11.60;;;4.72;;
70825;SDS011;58446;41.490;22.098;2024-03-02T13:06:26;8.73;;;3.38;;
70825;SDS011;58446;41.490;22.098;2024-03-02T13:08:53;8.10;;;3.40;;
70825;SDS011;58446;41.490;22.098;2024-03-02T13:11:21;8.93;;;3.23;;
70825;SDS011;58446;41.490;22.098;2024-03-02T13:13:51;8.38;;;2.97;;
70825;SDS011;58446;41.490;22.098;2024-03-02T13:16:17;7.88;;;2.92;;
70825;SDS011;58446;41.490;22.098;2024-03-02T13:18:45;7.82;;;2.90;;
70825;SDS011;58446;41.490;22.098;2024-03-02T13:21:11;8.38;;;3.75;;
70825;SDS011;58446;41.490;22.098;2024-03-02T13:23:36;10.10;;;2.80;;
70825;SDS011;58446;41.490;22.098;2024-03-02T13:26:02;6.33;;;2.63;;
70825;SDS011;58446;41.490;22.098;2024-03-02T13:28:29;8.10;;;3.23;;
70825;SDS011;58446;41.490;22.098;2024-03-02T13:30:55;7.72;;;3.00;;
70825;SDS011;58446;41.490;22.098;2024-03-02T13:33:20;7.13;;;3.25;;
70825;SDS011;58446;41.490;22.098;2024-03-02T13:35:49;6.07;;;2.30;;
70825;SDS011;58446;41.490;22.098;2024-03-02T13:38:24;9.00;;;2.75;;
70825;SDS011;58446;41.490;22.098;2024-03-02T13:40:49;10.30;;;3.50;;
70825;SDS011;58446;41.490;22.098;2024-03-02T13:43:18;8.07;;;2.80;;
70825;SDS011;58446;41.490;22.098;2024-03-02T13:45:44;9.00;;;3.03;;
70825;SDS011;58446;41.490;22.098;2024-03-02T13:48:10;9.37;;;3.17;;
70825;SDS011;58446;41.490;22.098;2024-03-02T13:50:36;10.82;;;2.90;;
70825;SDS011;58446;41.490;22.098;2024-03-02T13:53:01;10.33;;;3.13;;
70825;SDS011;58446;41.490;22.098;2024-03-02T13:55:28;6.97;;;2.55;;
70825;SDS011;58446;41.490;22.098;2024-03-02T13:57:54;10.48;;;3.33;;
70825;SDS011;58446;41.490;22.098;2024-03-02T14:00:21;8.03;;;2.10;;
70825;SDS011;58446;41.490;22.098;2024-03-02T14:02:46;6.78;;;2.55;;
70825;SDS011;58446;41.490;22.098;2024-03-02T14:05:14;10.90;;;2.42;;
70825;SDS011;58446;41.490;22.098;2024-03-02T14:07:41;8.90;;;3.43;;
70825;SDS011;58446;41.490;22.098;2024-03-02T14:10:07;7.47;;;2.33;;
70825;SDS011;58446;41.490;22.098;2024-03-02T14:12:33;7.90;;;2.67;;
70825;SDS011;58446;41.490;22.098;2024-03-02T14:14:59;7.43;;;2.85;;
70825;SDS011;58446;41.490;22.098;2024-03-02T14:17:27;7.30;;;2.17;;
70825;SDS011;58446;41.490;22.098;2024-03-02T14:19:53;6.18;;;2.35;;
70825;SDS011;58446;41.490;22.098;2024-03-02T14:22:19;8.80;;;2.70;;
70825;SDS011;58446;41.490;22.098;2024-03-02T14:24:45;8.27;;;2.85;;